Flight Track Log - Related Links

Times and Time Zones

All times are in EDT time to prevent confusion due to time zone crossing. See the N208D flight status page for this flight to view local times or setup timezone preferences in your user account.

Time Position Orientation Groundspeed Altitude Reporting Facility
EDT Latitude Longitude Course Direction KTS MPH feet Rate Location/Type
Thu 10:10:53 PM 39.3833 -77.3500 67° East 132 152 2,300  Level Potomac TRACON
Thu 10:11:53 PM 39.4000 -77.3000 72° East 136 157 2,900 333 Climbing Potomac TRACON
Thu 10:12:59 PM 39.4167 -77.2333 67° East 175 201 3,000 520 Climbing Potomac TRACON
Thu 10:14:00 PM 39.4333 -77.1833 67° East 154 177 4,000 992 Climbing Potomac TRACON
Thu 10:15:00 PM 39.4500 -77.1333 67° East 142 163 5,000 476 Climbing Potomac TRACON
Thu 10:16:06 PM 39.4667 -77.0833 49° Northeast 174 200 5,000 -50 Level Potomac TRACON
Thu 10:17:00 PM 39.5000 -77.0333 67° East 178 205 4,900  Descending Potomac TRACON
Thu 10:17:54 PM 39.5167 -76.9833 57° Northeast 177 204 5,000  Climbing Potomac TRACON
Thu 10:19:00 PM 39.5500 -76.9167 49° Northeast 175 201 4,900  Descending Potomac TRACON
Thu 10:20:01 PM 39.5833 -76.8667 67° East 175 201 5,000 50 Climbing Potomac TRACON
Thu 10:21:01 PM 39.6000 -76.8167 45° Northeast 180 207 5,000  Level Potomac TRACON
Thu 11:00:01 PM 40.9167 -75.0333 72° East 191 220 5,000 -2 Level New York TRACON
Thu 11:01:06 PM 40.9333 -74.9667 72° East 195 224 4,900 -400 Descending New York TRACON
Thu 11:02:01 PM 40.9500 -74.9000 90° East 215 247 4,200 -470 Descending New York TRACON
Thu 11:03:01 PM 40.9500 -74.8167 72° East 201 231 4,000 -96 Descending New York TRACON
Thu 11:04:06 PM 40.9667 -74.7500 75° East 192 221 4,000 -240 Level New York TRACON
Thu 11:05:06 PM 40.9833 -74.6667 90° East 204 235 3,500 -450 Descending New York TRACON
Thu 11:06:06 PM 40.9833 -74.6000 72° East 205 236 3,100 -263 Descending New York TRACON
Thu 11:07:00 PM 41.0000 -74.5333 90° East 190 219 3,000 -52 Descending New York TRACON
Thu 11:08:01 PM 41.0000 -74.4667 90° East 186 214 3,000  Level New York TRACON
Thu 11:09:06 PM 41.0000 -74.4000 72° East 182 209 3,000  Level New York TRACON
Thu 11:10:06 PM 41.0167 -74.3333 72° East 182 209 3,000  Level New York TRACON

Login

Don't have an account? Register now (free) for customized features, flight alerts, and more!